createdAt,value
2023-03-02T00:02:31.711Z,9.30
2023-03-02T00:05:02.608Z,9.55
2023-03-02T00:07:36.685Z,9.60
2023-03-02T00:10:08.581Z,8.30
2023-03-02T00:12:42.566Z,9.25
2023-03-02T00:15:16.208Z,9.68
2023-03-02T00:17:47.078Z,9.77
2023-03-02T00:20:18.237Z,11.95
2023-03-02T00:22:49.591Z,13.50
2023-03-02T00:25:21.270Z,10.95
2023-03-02T00:27:52.088Z,11.35
2023-03-02T00:30:25.727Z,12.05
2023-03-02T00:32:58.505Z,10.68
2023-03-02T00:35:30.228Z,8.88
2023-03-02T00:38:01.138Z,10.45
2023-03-02T00:40:31.920Z,9.07
2023-03-02T00:43:08.850Z,9.60
2023-03-02T00:45:51.413Z,13.25
2023-03-02T00:48:22.209Z,10.23
2023-03-02T00:50:53.200Z,9.35
2023-03-02T00:53:23.980Z,9.93
2023-03-02T00:55:58.543Z,8.15
2023-03-02T00:58:30.461Z,7.93
2023-03-02T01:01:09.250Z,10.30
2023-03-02T01:03:45.103Z,9.75
2023-03-02T01:06:21.074Z,11.77
2023-03-02T01:08:52.416Z,18.02
2023-03-02T01:11:25.078Z,9.07
2023-03-02T01:13:55.878Z,7.78
2023-03-02T01:16:29.283Z,10.48
2023-03-02T01:19:00.266Z,8.85
2023-03-02T01:21:31.113Z,10.50
2023-03-02T01:24:02.326Z,10.32
2023-03-02T01:26:33.498Z,11.38
2023-03-02T01:29:04.536Z,11.60
2023-03-02T01:31:37.921Z,13.05
2023-03-02T01:34:08.858Z,12.63
2023-03-02T01:36:40.146Z,13.00
2023-03-02T01:39:10.890Z,12.48
2023-03-02T01:41:41.636Z,10.82
2023-03-02T01:44:37.609Z,10.82
2023-03-02T01:47:17.334Z,13.93
2023-03-02T01:49:52.524Z,15.18
2023-03-02T01:52:24.081Z,12.93
2023-03-02T01:54:58.474Z,15.63
2023-03-02T01:57:32.008Z,12.35
2023-03-02T02:00:09.032Z,14.00
2023-03-02T02:02:44.605Z,13.50
2023-03-02T02:05:22.294Z,12.48
2023-03-02T02:07:53.062Z,10.98
2023-03-02T02:10:24.034Z,12.25
2023-03-02T02:12:54.957Z,12.00
2023-03-02T02:15:26.017Z,10.82
2023-03-02T02:17:59.393Z,14.73
2023-03-02T02:20:36.814Z,13.18
2023-03-02T02:23:22.204Z,15.68
2023-03-02T02:26:37.921Z,13.65
2023-03-02T02:29:14.590Z,12.85
2023-03-02T02:31:49.752Z,15.10
2023-03-02T02:34:24.814Z,15.38
2023-03-02T02:36:58.925Z,14.95
2023-03-02T02:39:33.321Z,16.40
2023-03-02T02:42:09.931Z,12.07
2023-03-02T02:44:42.349Z,11.02
2023-03-02T02:47:20.195Z,11.73
2023-03-02T02:49:53.111Z,12.35
2023-03-02T02:52:26.776Z,11.73
2023-03-02T02:54:59.762Z,10.40
2023-03-02T02:57:33.877Z,12.35
2023-03-02T03:00:06.970Z,10.20
2023-03-02T03:02:44.889Z,10.40
2023-03-02T03:05:17.989Z,12.25
2023-03-02T03:07:48.759Z,10.43
2023-03-02T03:10:25.897Z,9.10
2023-03-02T03:12:59.825Z,13.65
2023-03-02T03:15:34.717Z,10.10
2023-03-02T03:18:05.756Z,11.63
2023-03-02T03:20:41.288Z,13.38
2023-03-02T03:23:12.238Z,11.10
2023-03-02T03:25:43.031Z,11.75
2023-03-02T03:28:16.820Z,9.00
2023-03-02T03:30:47.793Z,10.85
2023-03-02T03:33:18.562Z,9.35
2023-03-02T03:35:54.141Z,9.65
2023-03-02T03:38:25.036Z,9.80
2023-03-02T03:40:55.814Z,11.40
2023-03-02T03:43:29.727Z,9.70
2023-03-02T03:46:00.627Z,10.50
2023-03-02T03:48:31.495Z,9.25
2023-03-02T03:51:03.415Z,10.13
2023-03-02T03:53:34.823Z,12.32
2023-03-02T03:56:05.917Z,9.90
2023-03-02T03:58:39.370Z,8.63
2023-03-02T04:01:10.198Z,10.32
2023-03-02T04:03:41.052Z,10.07
2023-03-02T04:06:18.938Z,11.20
2023-03-02T04:08:49.794Z,11.00
2023-03-02T04:11:37.144Z,11.48
2023-03-02T04:14:11.229Z,13.10
2023-03-02T04:16:44.199Z,15.05
2023-03-02T04:19:17.593Z,15.25
2023-03-02T04:21:50.437Z,14.63
2023-03-02T04:24:23.424Z,15.00
2023-03-02T04:27:00.452Z,16.40
2023-03-02T04:29:44.932Z,15.38
2023-03-02T04:32:16.647Z,12.18
2023-03-02T04:34:56.808Z,11.60
2023-03-02T04:37:30.219Z,10.02
2023-03-02T04:40:01.185Z,12.15
2023-03-02T04:42:32.051Z,11.75
2023-03-02T04:45:05.799Z,12.10
2023-03-02T04:47:36.577Z,7.80
2023-03-02T04:50:08.569Z,10.50
2023-03-02T04:52:39.609Z,8.80
2023-03-02T04:55:18.372Z,7.78
2023-03-02T04:57:49.178Z,10.75
2023-03-02T05:00:25.363Z,8.45
2023-03-02T05:02:58.265Z,10.27
2023-03-02T05:05:29.896Z,9.57
2023-03-02T05:08:01.159Z,10.00
2023-03-02T05:10:35.343Z,10.70
2023-03-02T05:13:06.347Z,9.05
2023-03-02T05:15:43.627Z,13.57
2023-03-02T05:18:15.088Z,17.23
2023-03-02T05:20:46.470Z,14.77
2023-03-02T05:23:25.214Z,15.25
2023-03-02T05:25:58.379Z,11.75
2023-03-02T05:28:29.488Z,14.73
2023-03-02T05:31:03.135Z,16.38
2023-03-02T05:33:34.437Z,13.52
2023-03-02T05:36:12.792Z,15.60
2023-03-02T05:38:43.689Z,14.52
2023-03-02T05:41:14.768Z,15.00
2023-03-02T05:43:45.616Z,14.40
2023-03-02T05:46:22.502Z,15.95
2023-03-02T05:48:53.634Z,18.42
2023-03-02T05:51:24.486Z,16.20
2023-03-02T05:53:55.221Z,15.25
2023-03-02T05:56:26.171Z,14.23
2023-03-02T05:59:01.433Z,14.43
2023-03-02T06:01:36.301Z,11.52
2023-03-02T06:04:07.595Z,12.75
2023-03-02T06:06:39.177Z,17.00
2023-03-02T06:09:10.137Z,13.50
2023-03-02T06:11:40.903Z,12.38
2023-03-02T06:14:11.998Z,12.20
2023-03-02T06:16:45.800Z,12.50
2023-03-02T06:19:16.716Z,13.75
2023-03-02T06:21:47.578Z,9.95
2023-03-02T06:24:18.623Z,10.68
2023-03-02T06:26:51.868Z,10.82
2023-03-02T06:29:22.735Z,14.88
2023-03-02T06:31:56.298Z,11.90
2023-03-02T06:34:29.384Z,11.32
2023-03-02T06:37:00.352Z,12.55
2023-03-02T06:39:31.101Z,12.70
2023-03-02T06:42:01.838Z,13.95
2023-03-02T06:44:32.818Z,10.13
2023-03-02T06:47:06.411Z,10.20
2023-03-02T06:49:37.366Z,10.15
2023-03-02T06:52:11.045Z,14.95
2023-03-02T06:54:41.904Z,9.00
2023-03-02T06:57:15.075Z,12.70
2023-03-02T06:59:45.973Z,11.40
2023-03-02T07:02:19.384Z,10.68
2023-03-02T07:04:50.268Z,10.38
2023-03-02T07:07:21.514Z,10.55
2023-03-02T07:09:52.262Z,13.25
2023-03-02T07:12:23.125Z,14.27
2023-03-02T07:14:59.596Z,14.80
2023-03-02T07:17:33.130Z,11.40
2023-03-02T07:20:05.235Z,13.13
2023-03-02T07:22:37.563Z,10.85
2023-03-02T07:25:10.029Z,10.15
2023-03-02T07:27:41.817Z,11.63
2023-03-02T07:30:14.953Z,9.38
2023-03-02T07:32:50.551Z,10.45
2023-03-02T07:35:21.906Z,13.30
2023-03-02T07:37:55.100Z,10.10
2023-03-02T07:40:25.845Z,12.10
2023-03-02T07:42:56.800Z,12.45
2023-03-02T07:45:27.763Z,14.80
2023-03-02T07:48:01.261Z,15.68
2023-03-02T07:50:32.590Z,11.30
2023-03-02T07:53:03.531Z,10.98
2023-03-02T07:55:34.597Z,9.32
2023-03-02T07:58:05.352Z,13.70
2023-03-02T08:00:36.987Z,10.88
2023-03-02T08:03:11.842Z,10.90
2023-03-02T08:05:42.866Z,9.70
2023-03-02T08:08:13.811Z,10.60
2023-03-02T08:10:44.863Z,11.20
2023-03-02T08:13:15.674Z,10.50
2023-03-02T08:15:49.386Z,10.07
2023-03-02T08:18:22.871Z,11.07
2023-03-02T08:20:53.943Z,9.95
2023-03-02T08:23:25.311Z,11.93
2023-03-02T08:25:56.815Z,8.75
2023-03-02T08:28:27.691Z,10.57
2023-03-02T08:30:59.381Z,18.05
2023-03-02T08:33:33.425Z,13.35
2023-03-02T08:36:06.301Z,11.88
2023-03-02T08:38:38.036Z,10.68
2023-03-02T08:41:09.982Z,10.60
2023-03-02T08:43:41.032Z,9.65
2023-03-02T08:46:14.919Z,9.27
2023-03-02T08:48:49.853Z,10.55
2023-03-02T08:51:22.958Z,10.17
2023-03-02T08:53:56.303Z,10.93
2023-03-02T08:56:31.683Z,11.70
2023-03-02T08:59:04.328Z,9.53
2023-03-02T09:01:37.513Z,10.98
2023-03-02T09:04:12.562Z,7.10
2023-03-02T09:06:44.949Z,9.80
2023-03-02T09:09:17.845Z,8.43
2023-03-02T09:11:48.667Z,9.10
2023-03-02T09:14:19.474Z,9.20
2023-03-02T09:16:50.264Z,10.90
2023-03-02T09:19:24.433Z,10.30
2023-03-02T09:21:55.629Z,10.03
2023-03-02T09:24:26.505Z,8.03
2023-03-02T09:26:57.376Z,12.83
2023-03-02T09:29:28.512Z,8.20
2023-03-02T09:31:59.523Z,10.37
2023-03-02T09:34:32.989Z,7.30
2023-03-02T09:37:03.981Z,8.87
2023-03-02T09:39:34.845Z,9.60
2023-03-02T09:42:44.635Z,7.77
2023-03-02T09:45:27.573Z,7.13
2023-03-02T09:48:13.030Z,8.00
2023-03-02T09:50:56.251Z,10.20
2023-03-02T09:53:42.651Z,8.23
2023-03-02T09:56:18.696Z,7.57
2023-03-02T09:58:57.685Z,7.50
2023-03-02T10:01:42.028Z,7.30
2023-03-02T10:04:24.564Z,7.37
2023-03-02T10:07:03.303Z,8.77
2023-03-02T10:09:34.152Z,9.33
2023-03-02T10:12:19.567Z,6.97
2023-03-02T10:14:56.640Z,8.10
2023-03-02T10:17:42.743Z,6.83
2023-03-02T10:20:19.713Z,7.57
2023-03-02T10:22:59.605Z,8.97
2023-03-02T10:25:40.018Z,7.37
2023-03-02T10:28:19.790Z,8.93
2023-03-02T10:30:56.611Z,6.47
2023-03-02T10:33:29.478Z,9.53
2023-03-02T10:36:01.207Z,6.97
2023-03-02T10:38:37.767Z,9.60
2023-03-02T10:41:12.876Z,8.50
2023-03-02T10:43:48.984Z,7.20
2023-03-02T10:46:19.795Z,13.13
2023-03-02T10:48:56.339Z,6.50
2023-03-02T10:51:30.170Z,7.47
2023-03-02T10:54:14.772Z,5.90
2023-03-02T10:56:50.767Z,8.70
2023-03-02T10:59:47.618Z,7.70
2023-03-02T11:02:23.612Z,7.30
2023-03-02T11:04:58.170Z,5.43
2023-03-02T11:07:31.047Z,6.60
2023-03-02T11:10:07.834Z,8.30
2023-03-02T11:12:39.951Z,7.60
2023-03-02T11:15:23.116Z,7.03
2023-03-02T11:17:59.227Z,6.30
2023-03-02T11:20:33.741Z,7.00
2023-03-02T11:23:22.330Z,5.93
2023-03-02T11:25:59.871Z,6.10
2023-03-02T11:28:51.552Z,16.40
2023-03-02T11:31:31.465Z,5.80
2023-03-02T11:34:30.549Z,7.10
2023-03-02T11:37:19.593Z,5.30
2023-03-02T11:40:08.040Z,7.50
2023-03-02T11:42:44.771Z,7.27
2023-03-02T11:45:27.289Z,7.90
2023-03-02T11:48:04.178Z,6.40
2023-03-02T11:50:37.534Z,5.83
2023-03-02T11:53:14.332Z,5.23
2023-03-02T11:55:48.558Z,7.50
2023-03-02T11:58:24.817Z,9.77
2023-03-02T12:00:58.014Z,8.43
2023-03-02T12:03:44.978Z,7.17
2023-03-02T12:06:37.255Z,6.57
2023-03-02T12:09:30.847Z,6.77
2023-03-02T12:12:17.849Z,5.63
2023-03-02T12:14:53.308Z,6.63
2023-03-02T12:17:33.771Z,6.27
2023-03-02T12:20:30.132Z,11.40
2023-03-02T12:23:12.168Z,6.03
2023-03-02T12:25:51.645Z,6.60
2023-03-02T12:28:32.260Z,4.70
2023-03-02T12:31:14.835Z,6.20
2023-03-02T12:33:49.449Z,4.87
2023-03-02T12:36:27.550Z,7.30
2023-03-02T12:39:16.778Z,5.47
2023-03-02T12:42:09.733Z,6.60
2023-03-02T12:44:53.380Z,5.60
2023-03-02T12:47:31.366Z,5.90
2023-03-02T12:50:05.251Z,4.90
2023-03-02T12:52:50.282Z,6.10
2023-03-02T12:55:27.526Z,4.83
2023-03-02T12:58:02.801Z,5.67
2023-03-02T13:00:38.450Z,4.73
2023-03-02T13:03:17.296Z,4.37
2023-03-02T13:05:49.747Z,7.60
2023-03-02T13:08:24.278Z,8.23
2023-03-02T13:10:56.838Z,5.30
2023-03-02T13:13:32.433Z,5.00
2023-03-02T13:16:08.474Z,5.57
2023-03-02T13:18:45.074Z,6.20
2023-03-02T13:21:17.619Z,7.30
2023-03-02T13:23:50.812Z,5.67
2023-03-02T13:26:30.195Z,5.93
2023-03-02T13:29:05.672Z,4.80
2023-03-02T13:31:37.629Z,5.67
2023-03-02T13:34:23.569Z,5.50
2023-03-02T13:36:54.942Z,5.90
2023-03-02T13:39:32.350Z,4.90
2023-03-02T13:42:05.371Z,6.80
2023-03-02T13:44:38.041Z,7.30
2023-03-02T13:47:25.057Z,5.60
2023-03-02T13:50:10.183Z,4.83
2023-03-02T13:52:45.700Z,5.00
2023-03-02T13:55:17.757Z,7.53
2023-03-02T13:57:49.887Z,5.07
2023-03-02T14:00:24.529Z,6.43
2023-03-02T14:02:55.420Z,5.33
2023-03-02T14:05:33.461Z,5.77
2023-03-02T14:08:07.143Z,6.03
2023-03-02T14:10:38.991Z,4.60
2023-03-02T14:13:14.464Z,5.37
2023-03-02T14:15:50.369Z,9.70
2023-03-02T14:18:32.770Z,5.97
2023-03-02T14:21:08.171Z,5.33
2023-03-02T14:23:41.145Z,5.53
2023-03-02T14:26:33.420Z,6.70
2023-03-02T14:29:06.993Z,7.93
2023-03-02T14:31:37.859Z,6.07
2023-03-02T14:34:08.699Z,4.93
2023-03-02T14:36:43.299Z,7.60
2023-03-02T14:39:23.219Z,6.07
2023-03-02T14:41:56.093Z,6.20
2023-03-02T14:44:27.168Z,6.73
2023-03-02T14:46:58.445Z,5.13
2023-03-02T14:49:29.792Z,8.07
2023-03-02T14:52:08.346Z,6.30
2023-03-02T14:54:43.978Z,6.77
2023-03-02T14:57:25.300Z,5.93
2023-03-02T14:59:59.799Z,6.60
2023-03-02T15:02:34.241Z,5.80
2023-03-02T15:05:08.321Z,7.03
2023-03-02T15:07:42.219Z,6.37
2023-03-02T15:10:18.030Z,7.50
2023-03-02T15:12:49.087Z,6.17
2023-03-02T15:15:20.065Z,7.87
2023-03-02T15:17:53.902Z,6.83
2023-03-02T15:20:25.188Z,6.27
2023-03-02T15:22:58.760Z,8.73
2023-03-02T15:25:30.010Z,6.03
2023-03-02T15:28:01.010Z,6.63
2023-03-02T15:30:32.538Z,8.97
2023-03-02T15:33:03.371Z,8.10
2023-03-02T15:35:34.144Z,10.13
2023-03-02T15:38:09.305Z,10.73
2023-03-02T15:40:40.540Z,11.70
2023-03-02T15:43:12.105Z,11.07
2023-03-02T15:45:48.707Z,10.93
2023-03-02T15:48:19.479Z,11.87
2023-03-02T15:50:59.045Z,12.73
2023-03-02T15:53:33.162Z,11.67
2023-03-02T15:56:07.012Z,14.33
2023-03-02T15:58:38.307Z,13.93
2023-03-02T16:01:16.228Z,13.07
2023-03-02T16:03:48.098Z,13.63
2023-03-02T16:06:18.896Z,15.10
2023-03-02T16:08:52.265Z,14.23
2023-03-02T16:11:23.465Z,11.63
2023-03-02T16:13:54.543Z,14.30
2023-03-02T16:16:30.656Z,16.10
2023-03-02T16:19:02.168Z,12.20
2023-03-02T16:21:33.355Z,14.27
2023-03-02T16:24:07.707Z,13.00
2023-03-02T16:26:41.011Z,16.00
2023-03-02T16:29:11.783Z,13.13
2023-03-02T16:31:43.353Z,13.53
2023-03-02T16:34:14.233Z,13.33
2023-03-02T16:36:47.042Z,11.53
2023-03-02T16:39:20.473Z,13.77
2023-03-02T16:41:51.706Z,13.80
2023-03-02T16:44:24.417Z,12.57
2023-03-02T16:46:57.260Z,15.10
2023-03-02T16:49:28.513Z,14.20
2023-03-02T16:52:00.676Z,12.57
2023-03-02T16:54:34.042Z,13.43
2023-03-02T16:57:05.329Z,17.07
2023-03-02T16:59:36.190Z,14.00
2023-03-02T17:02:07.367Z,14.80
2023-03-02T17:04:38.356Z,17.77
2023-03-02T17:07:09.689Z,17.63
2023-03-02T17:09:43.951Z,16.57
2023-03-02T17:12:15.739Z,19.67
2023-03-02T17:14:46.730Z,17.07
2023-03-02T17:17:18.101Z,16.70
2023-03-02T17:19:50.456Z,17.83
2023-03-02T17:22:21.234Z,17.43
2023-03-02T17:24:55.530Z,18.13
2023-03-02T17:27:28.375Z,16.70
2023-03-02T17:29:59.369Z,19.10
2023-03-02T17:32:30.346Z,17.53
2023-03-02T17:35:01.170Z,20.17
2023-03-02T17:37:32.392Z,18.63
2023-03-02T17:40:06.747Z,18.30
2023-03-02T17:42:39.278Z,23.37
2023-03-02T17:45:11.357Z,20.87
2023-03-02T17:47:43.165Z,18.93
2023-03-02T17:50:23.044Z,20.53
2023-03-02T17:52:54.161Z,21.57
2023-03-02T17:55:27.547Z,22.80
2023-03-02T17:58:00.486Z,18.07
2023-03-02T18:00:31.727Z,22.10
2023-03-02T18:03:02.511Z,21.30
2023-03-02T18:05:34.586Z,19.20
2023-03-02T18:08:05.866Z,18.93
2023-03-02T18:10:39.227Z,21.20
2023-03-02T18:13:10.020Z,19.27
2023-03-02T18:15:40.948Z,19.93
2023-03-02T18:18:12.543Z,20.80
2023-03-02T18:20:43.444Z,18.87
2023-03-02T18:23:15.477Z,21.53
2023-03-02T18:25:48.863Z,20.03
2023-03-02T18:28:20.049Z,21.90
2023-03-02T18:30:51.252Z,19.23
2023-03-02T18:33:22.081Z,21.60
2023-03-02T18:35:52.881Z,23.63
2023-03-02T18:38:30.679Z,21.70
2023-03-02T18:41:06.433Z,19.23
2023-03-02T18:43:40.481Z,21.27
2023-03-02T18:46:29.819Z,21.43
2023-03-02T18:49:01.164Z,20.77
2023-03-02T18:51:31.979Z,22.60
2023-03-02T18:54:07.537Z,22.13
2023-03-02T18:56:43.449Z,24.37
2023-03-02T18:59:17.766Z,22.20
2023-03-02T19:01:50.169Z,25.63
2023-03-02T19:04:26.327Z,24.33
2023-03-02T19:07:00.979Z,26.20
2023-03-02T19:09:31.781Z,22.37
2023-03-02T19:12:05.167Z,25.13
2023-03-02T19:14:36.002Z,27.80
2023-03-02T19:17:08.882Z,25.97
2023-03-02T19:19:41.290Z,28.57
2023-03-02T19:22:16.616Z,27.97
2023-03-02T19:24:48.218Z,28.83
2023-03-02T19:27:21.558Z,30.20
2023-03-02T19:29:52.254Z,28.90
2023-03-02T19:32:23.165Z,28.50
2023-03-02T19:34:54.115Z,30.13
2023-03-02T19:37:26.445Z,31.77
2023-03-02T19:39:57.149Z,29.27
2023-03-02T19:42:34.743Z,27.20
2023-03-02T19:45:05.860Z,31.57
2023-03-02T19:47:36.831Z,34.07
2023-03-02T19:50:11.637Z,29.63
2023-03-02T19:52:42.482Z,30.10
2023-03-02T19:55:15.290Z,32.00
2023-03-02T19:57:55.816Z,30.50
2023-03-02T20:00:27.198Z,37.00
2023-03-02T20:02:58.633Z,33.23
2023-03-02T20:05:30.615Z,34.53
2023-03-02T20:08:01.435Z,34.80
2023-03-02T20:10:35.115Z,32.67
2023-03-02T20:13:09.768Z,31.98
2023-03-02T20:15:44.510Z,32.08
2023-03-02T20:18:18.699Z,32.78
2023-03-02T20:20:50.020Z,34.85
2023-03-02T20:23:21.135Z,31.77
2023-03-02T20:25:52.379Z,36.10
2023-03-02T20:28:27.016Z,37.63
2023-03-02T20:31:00.709Z,36.47
2023-03-02T20:33:34.417Z,34.63
2023-03-02T20:36:06.666Z,38.77
2023-03-02T20:38:40.170Z,36.88
2023-03-02T20:41:11.781Z,39.17
2023-03-02T20:43:46.086Z,38.17
2023-03-02T20:46:23.286Z,41.03
2023-03-02T20:48:54.447Z,40.77
2023-03-02T20:51:25.488Z,39.42
2023-03-02T20:53:56.950Z,39.72
2023-03-02T20:56:28.597Z,39.55
2023-03-02T20:59:02.424Z,38.50
2023-03-02T21:01:33.782Z,39.87
2023-03-02T21:04:15.957Z,42.37
2023-03-02T21:06:47.427Z,46.13
2023-03-02T21:09:19.907Z,41.90
2023-03-02T21:11:51.262Z,40.40
2023-03-02T21:14:26.147Z,46.90
2023-03-02T21:17:03.434Z,43.72
2023-03-02T21:19:34.749Z,45.88
2023-03-02T21:22:06.279Z,44.63
2023-03-02T21:24:37.041Z,44.87
2023-03-02T21:27:08.256Z,48.70
2023-03-02T21:29:41.702Z,48.45
2023-03-02T21:32:12.575Z,53.38
2023-03-02T21:34:44.588Z,48.50
2023-03-02T21:37:15.315Z,52.20
2023-03-02T21:39:46.093Z,54.37
2023-03-02T21:42:16.959Z,57.30
2023-03-02T21:44:50.662Z,60.20
2023-03-02T21:47:21.428Z,55.00
2023-03-02T21:49:52.340Z,55.70
2023-03-02T21:52:23.134Z,60.42
2023-03-02T21:54:53.870Z,57.50
2023-03-02T21:57:25.359Z,52.13
2023-03-02T21:59:58.900Z,54.65
2023-03-02T22:02:29.752Z,61.70
2023-03-02T22:05:00.631Z,56.47
2023-03-02T22:07:31.451Z,56.67
2023-03-02T22:10:03.675Z,63.75
2023-03-02T22:12:34.793Z,63.33
2023-03-02T22:15:13.067Z,55.60
2023-03-02T22:17:45.807Z,53.22
2023-03-02T22:20:19.869Z,59.63
2023-03-02T22:22:55.131Z,57.40
2023-03-02T22:25:27.148Z,55.90
2023-03-02T22:27:57.979Z,55.33
2023-03-02T22:30:34.704Z,56.38
2023-03-02T22:33:05.947Z,60.88
2023-03-02T22:35:36.687Z,54.17
2023-03-02T22:38:16.175Z,57.05
2023-03-02T22:40:46.883Z,59.22
2023-03-02T22:43:25.962Z,52.47
2023-03-02T22:46:02.029Z,62.45
2023-03-02T22:48:32.809Z,57.85
2023-03-02T22:51:15.524Z,54.75
2023-03-02T22:53:51.239Z,52.72
2023-03-02T22:56:33.343Z,50.10
2023-03-02T22:59:09.509Z,52.33
2023-03-02T23:01:45.476Z,52.20
2023-03-02T23:04:21.484Z,53.80
2023-03-02T23:06:54.255Z,53.65
2023-03-02T23:09:27.624Z,58.20
2023-03-02T23:12:01.382Z,52.35
2023-03-02T23:14:38.511Z,48.45
2023-03-02T23:17:18.008Z,51.15
2023-03-02T23:19:48.756Z,54.35
2023-03-02T23:22:19.863Z,53.60
2023-03-02T23:24:50.598Z,52.75
2023-03-02T23:27:21.405Z,49.70
2023-03-02T23:29:52.326Z,49.10
2023-03-02T23:32:25.736Z,52.78
2023-03-02T23:34:56.536Z,47.53
2023-03-02T23:37:27.329Z,51.22
2023-03-02T23:39:58.242Z,51.70
2023-03-02T23:42:29.068Z,49.58
2023-03-02T23:44:59.791Z,49.72
2023-03-02T23:47:33.073Z,47.30
2023-03-02T23:50:04.132Z,48.33
2023-03-02T23:52:34.929Z,44.55
2023-03-02T23:55:05.684Z,44.88
2023-03-02T23:57:36.516Z,45.17
